KENL

Centralia Municipal Airport

Centralia, Illinois, USA
METAR KENL 232215Z AUTO 28003KT 10SM OVC017 11/08 A3024 RMK AO2 T01050084
Observed Flight Rules
Feb-23 @ 22:15 UTC (16 minutes ago) Marginal Visual Flight Rules
Wind Visibility Clouds
280° at 3 knots 10 miles
  • Overcast at 1,700' AGL
Temperatures Readings
Current 11°C / 52°F
Dewpoint 8°C / 46°F
Humidity 82%
Altimeter 30.24" Hg
Pressure 1024 hPa
Elevation 163
METAR KENL 232215Z AUTO 28003KT 10SM OVC017 11/08 A3024 RMK AO2 T01050084
Observed Flight Rules
Feb-23 @ 22:15 UTC
(16 minutes ago)
MVFR
Wind Visibility
280° at 3 knots 10 miles
Clouds
  • Overcast at 1,700' AGL
Temperature Dewpoint
11°C / 52°F 8°C / 46°F
Humidity Altimeter Pressure
82% 30.24" Hg 1024 hPa